sensor_id;sensor_type;location;lat;lon;timestamp;temperature;humidity
15160;DHT22;7680;48.800;9.680;2023-08-17T00:03:44;19.30;99.90
15160;DHT22;7680;48.800;9.680;2023-08-17T00:08:49;19.30;99.90
15160;DHT22;7680;48.800;9.680;2023-08-17T00:13:52;19.30;99.90
15160;DHT22;7680;48.800;9.680;2023-08-17T00:18:55;19.30;99.90
15160;DHT22;7680;48.800;9.680;2023-08-17T00:24:00;19.40;99.90
15160;DHT22;7680;48.800;9.680;2023-08-17T00:29:03;19.30;99.90
15160;DHT22;7680;48.800;9.680;2023-08-17T00:34:07;19.30;99.90
15160;DHT22;7680;48.800;9.680;2023-08-17T00:39:11;19.30;99.90
15160;DHT22;7680;48.800;9.680;2023-08-17T00:44:14;19.30;99.90
15160;DHT22;7680;48.800;9.680;2023-08-17T00:49:17;19.30;99.90
15160;DHT22;7680;48.800;9.680;2023-08-17T00:54:24;19.30;99.90
15160;DHT22;7680;48.800;9.680;2023-08-17T00:59:28;19.20;99.90
15160;DHT22;7680;48.800;9.680;2023-08-17T01:04:37;19.20;99.90
15160;DHT22;7680;48.800;9.680;2023-08-17T01:09:42;19.10;99.90
15160;DHT22;7680;48.800;9.680;2023-08-17T01:14:52;19.00;99.90
15160;DHT22;7680;48.800;9.680;2023-08-17T01:19:59;19.00;99.90
15160;DHT22;7680;48.800;9.680;2023-08-17T01:25:07;18.90;99.90
15160;DHT22;7680;48.800;9.680;2023-08-17T01:30:13;18.80;99.90
15160;DHT22;7680;48.800;9.680;2023-08-17T01:35:28;18.80;99.90
15160;DHT22;7680;48.800;9.680;2023-08-17T01:40:36;18.80;99.90
15160;DHT22;7680;48.800;9.680;2023-08-17T01:45:39;18.90;99.90
15160;DHT22;7680;48.800;9.680;2023-08-17T01:50:42;18.80;99.90
15160;DHT22;7680;48.800;9.680;2023-08-17T01:55:47;18.80;99.90
15160;DHT22;7680;48.800;9.680;2023-08-17T02:00:51;18.60;99.90
15160;DHT22;7680;48.800;9.680;2023-08-17T02:05:55;18.60;99.90
15160;DHT22;7680;48.800;9.680;2023-08-17T02:11:00;18.70;99.90
15160;DHT22;7680;48.800;9.680;2023-08-17T02:16:03;18.60;99.90
15160;DHT22;7680;48.800;9.680;2023-08-17T02:21:07;18.60;99.90
15160;DHT22;7680;48.800;9.680;2023-08-17T02:26:12;18.60;99.90
15160;DHT22;7680;48.800;9.680;2023-08-17T02:31:15;18.60;99.90
15160;DHT22;7680;48.800;9.680;2023-08-17T02:36:18;18.60;99.90
15160;DHT22;7680;48.800;9.680;2023-08-17T02:41:23;18.50;99.90
15160;DHT22;7680;48.800;9.680;2023-08-17T02:46:26;18.50;99.90
15160;DHT22;7680;48.800;9.680;2023-08-17T02:51:29;18.50;99.90
15160;DHT22;7680;48.800;9.680;2023-08-17T02:56:33;18.40;99.90
15160;DHT22;7680;48.800;9.680;2023-08-17T03:01:37;18.40;99.90
15160;DHT22;7680;48.800;9.680;2023-08-17T03:06:40;18.30;99.90
15160;DHT22;7680;48.800;9.680;2023-08-17T03:11:45;18.30;99.90
15160;DHT22;7680;48.800;9.680;2023-08-17T03:16:48;18.20;99.90
15160;DHT22;7680;48.800;9.680;2023-08-17T03:21:51;18.20;99.90
15160;DHT22;7680;48.800;9.680;2023-08-17T03:26:56;18.10;99.90
15160;DHT22;7680;48.800;9.680;2023-08-17T03:31:59;18.20;99.90
15160;DHT22;7680;48.800;9.680;2023-08-17T03:37:04;18.20;99.90
15160;DHT22;7680;48.800;9.680;2023-08-17T03:42:09;18.30;99.90
15160;DHT22;7680;48.800;9.680;2023-08-17T03:47:12;18.10;99.90
15160;DHT22;7680;48.800;9.680;2023-08-17T03:52:16;18.10;99.90
15160;DHT22;7680;48.800;9.680;2023-08-17T03:57:20;18.00;99.90
15160;DHT22;7680;48.800;9.680;2023-08-17T04:02:24;18.10;99.90
15160;DHT22;7680;48.800;9.680;2023-08-17T04:07:27;18.10;99.90
15160;DHT22;7680;48.800;9.680;2023-08-17T04:12:32;18.10;99.90
15160;DHT22;7680;48.800;9.680;2023-08-17T04:17:35;18.10;99.90
15160;DHT22;7680;48.800;9.680;2023-08-17T04:22:38;18.10;99.90
15160;DHT22;7680;48.800;9.680;2023-08-17T04:27:43;18.10;99.90
15160;DHT22;7680;48.800;9.680;2023-08-17T04:32:46;18.10;99.90
15160;DHT22;7680;48.800;9.680;2023-08-17T04:37:54;18.10;99.90
15160;DHT22;7680;48.800;9.680;2023-08-17T04:42:58;18.00;99.90
15160;DHT22;7680;48.800;9.680;2023-08-17T04:48:02;18.10;99.90
15160;DHT22;7680;48.800;9.680;2023-08-17T04:53:05;18.10;99.90
15160;DHT22;7680;48.800;9.680;2023-08-17T04:58:10;18.00;99.90
15160;DHT22;7680;48.800;9.680;2023-08-17T05:03:13;17.90;99.90
15160;DHT22;7680;48.800;9.680;2023-08-17T05:08:33;17.90;99.90
15160;DHT22;7680;48.800;9.680;2023-08-17T05:13:38;17.90;99.90
15160;DHT22;7680;48.800;9.680;2023-08-17T05:18:41;18.00;99.90
15160;DHT22;7680;48.800;9.680;2023-08-17T05:23:45;18.10;99.90
15160;DHT22;7680;48.800;9.680;2023-08-17T05:28:49;18.20;99.90
15160;DHT22;7680;48.800;9.680;2023-08-17T05:33:52;18.30;99.90
15160;DHT22;7680;48.800;9.680;2023-08-17T05:38:55;18.10;99.90
15160;DHT22;7680;48.800;9.680;2023-08-17T05:44:00;18.40;99.90
15160;DHT22;7680;48.800;9.680;2023-08-17T05:49:04;18.50;99.90
15160;DHT22;7680;48.800;9.680;2023-08-17T05:54:07;18.50;99.90
15160;DHT22;7680;48.800;9.680;2023-08-17T05:59:12;18.70;99.90
15160;DHT22;7680;48.800;9.680;2023-08-17T06:04:15;18.90;99.90
15160;DHT22;7680;48.800;9.680;2023-08-17T06:09:18;19.00;99.90
15160;DHT22;7680;48.800;9.680;2023-08-17T06:14:23;18.90;99.90
15160;DHT22;7680;48.800;9.680;2023-08-17T06:19:26;19.30;99.90
15160;DHT22;7680;48.800;9.680;2023-08-17T06:24:29;19.50;99.90
15160;DHT22;7680;48.800;9.680;2023-08-17T06:29:34;19.70;99.90
15160;DHT22;7680;48.800;9.680;2023-08-17T06:34:37;19.80;99.90
15160;DHT22;7680;48.800;9.680;2023-08-17T06:39:41;19.90;99.90
15160;DHT22;7680;48.800;9.680;2023-08-17T06:44:45;20.40;99.90
15160;DHT22;7680;48.800;9.680;2023-08-17T06:49:49;20.80;99.90
15160;DHT22;7680;48.800;9.680;2023-08-17T06:54:52;21.10;99.90
15160;DHT22;7680;48.800;9.680;2023-08-17T06:59:57;21.50;99.90
15160;DHT22;7680;48.800;9.680;2023-08-17T07:05:00;22.00;99.90
15160;DHT22;7680;48.800;9.680;2023-08-17T07:10:06;21.90;99.90
15160;DHT22;7680;48.800;9.680;2023-08-17T07:15:11;21.80;99.90
15160;DHT22;7680;48.800;9.680;2023-08-17T07:20:15;21.80;99.90
15160;DHT22;7680;48.800;9.680;2023-08-17T07:25:18;21.50;99.90
15160;DHT22;7680;48.800;9.680;2023-08-17T07:30:23;21.50;99.90
15160;DHT22;7680;48.800;9.680;2023-08-17T07:35:26;21.80;99.90
15160;DHT22;7680;48.800;9.680;2023-08-17T07:40:29;22.00;99.90
15160;DHT22;7680;48.800;9.680;2023-08-17T07:45:34;22.50;99.90
15160;DHT22;7680;48.800;9.680;2023-08-17T07:50:37;23.40;99.90
15160;DHT22;7680;48.800;9.680;2023-08-17T07:55:40;24.10;99.90
15160;DHT22;7680;48.800;9.680;2023-08-17T08:00:46;24.70;99.90
15160;DHT22;7680;48.800;9.680;2023-08-17T08:05:49;24.80;99.90
15160;DHT22;7680;48.800;9.680;2023-08-17T08:10:53;24.70;99.90
15160;DHT22;7680;48.800;9.680;2023-08-17T08:15:58;24.80;99.90
15160;DHT22;7680;48.800;9.680;2023-08-17T08:21:01;25.40;99.90
15160;DHT22;7680;48.800;9.680;2023-08-17T08:26:04;26.20;99.90
15160;DHT22;7680;48.800;9.680;2023-08-17T08:31:09;26.30;99.90
15160;DHT22;7680;48.800;9.680;2023-08-17T08:36:12;26.30;99.90
15160;DHT22;7680;48.800;9.680;2023-08-17T08:41:15;26.10;99.90
15160;DHT22;7680;48.800;9.680;2023-08-17T08:46:20;26.40;99.90
15160;DHT22;7680;48.800;9.680;2023-08-17T08:51:27;26.70;99.90
15160;DHT22;7680;48.800;9.680;2023-08-17T08:56:32;26.90;99.90
15160;DHT22;7680;48.800;9.680;2023-08-17T09:01:38;27.20;99.90
15160;DHT22;7680;48.800;9.680;2023-08-17T09:06:42;27.40;99.90
15160;DHT22;7680;48.800;9.680;2023-08-17T09:11:45;27.40;99.90
15160;DHT22;7680;48.800;9.680;2023-08-17T09:16:50;27.70;99.90
15160;DHT22;7680;48.800;9.680;2023-08-17T09:21:53;27.80;99.90
15160;DHT22;7680;48.800;9.680;2023-08-17T09:26:56;28.00;99.90
15160;DHT22;7680;48.800;9.680;2023-08-17T09:32:05;28.00;99.90
15160;DHT22;7680;48.800;9.680;2023-08-17T09:37:11;28.20;99.90
15160;DHT22;7680;48.800;9.680;2023-08-17T09:42:15;28.30;99.90
15160;DHT22;7680;48.800;9.680;2023-08-17T09:47:21;28.20;99.90
15160;DHT22;7680;48.800;9.680;2023-08-17T09:52:25;28.20;99.90
15160;DHT22;7680;48.800;9.680;2023-08-17T09:57:28;28.50;99.90
15160;DHT22;7680;48.800;9.680;2023-08-17T10:02:33;28.50;99.90
15160;DHT22;7680;48.800;9.680;2023-08-17T10:07:39;28.50;99.90
15160;DHT22;7680;48.800;9.680;2023-08-17T10:12:48;28.60;99.90
15160;DHT22;7680;48.800;9.680;2023-08-17T10:18:00;28.70;99.90
15160;DHT22;7680;48.800;9.680;2023-08-17T10:23:18;28.80;99.90
15160;DHT22;7680;48.800;9.680;2023-08-17T10:28:22;29.00;99.90
15160;DHT22;7680;48.800;9.680;2023-08-17T10:33:27;28.90;99.90
15160;DHT22;7680;48.800;9.680;2023-08-17T10:38:31;29.20;99.90
15160;DHT22;7680;48.800;9.680;2023-08-17T10:43:34;29.20;99.90
15160;DHT22;7680;48.800;9.680;2023-08-17T10:48:39;29.20;99.90
15160;DHT22;7680;48.800;9.680;2023-08-17T10:53:43;29.50;99.90
15160;DHT22;7680;48.800;9.680;2023-08-17T10:58:46;29.40;99.90
15160;DHT22;7680;48.800;9.680;2023-08-17T11:09:22;29.20;99.90
15160;DHT22;7680;48.800;9.680;2023-08-17T11:14:32;29.00;99.90
15160;DHT22;7680;48.800;9.680;2023-08-17T11:19:39;29.00;99.90
15160;DHT22;7680;48.800;9.680;2023-08-17T11:24:44;29.30;99.90
15160;DHT22;7680;48.800;9.680;2023-08-17T11:29:48;29.50;99.90
15160;DHT22;7680;48.800;9.680;2023-08-17T11:34:51;29.60;99.90
15160;DHT22;7680;48.800;9.680;2023-08-17T11:40:02;29.60;99.90
15160;DHT22;7680;48.800;9.680;2023-08-17T11:45:06;29.30;99.90
15160;DHT22;7680;48.800;9.680;2023-08-17T11:50:14;29.30;99.90
15160;DHT22;7680;48.800;9.680;2023-08-17T11:55:23;29.50;99.90
15160;DHT22;7680;48.800;9.680;2023-08-17T12:00:26;29.70;99.90
15160;DHT22;7680;48.800;9.680;2023-08-17T12:05:31;29.90;99.90
15160;DHT22;7680;48.800;9.680;2023-08-17T12:10:37;29.90;99.90
15160;DHT22;7680;48.800;9.680;2023-08-17T12:15:40;30.00;99.90
15160;DHT22;7680;48.800;9.680;2023-08-17T12:20:43;29.90;99.90
15160;DHT22;7680;48.800;9.680;2023-08-17T12:25:53;30.10;99.90
15160;DHT22;7680;48.800;9.680;2023-08-17T12:30:59;29.80;99.90
15160;DHT22;7680;48.800;9.680;2023-08-17T12:36:03;29.70;99.90
15160;DHT22;7680;48.800;9.680;2023-08-17T12:41:10;29.60;99.90
15160;DHT22;7680;48.800;9.680;2023-08-17T12:46:13;29.60;99.90
15160;DHT22;7680;48.800;9.680;2023-08-17T12:51:16;29.40;99.90
15160;DHT22;7680;48.800;9.680;2023-08-17T12:56:21;29.00;99.90
15160;DHT22;7680;48.800;9.680;2023-08-17T13:01:24;28.80;99.90
15160;DHT22;7680;48.800;9.680;2023-08-17T13:06:27;28.70;99.90
15160;DHT22;7680;48.800;9.680;2023-08-17T13:11:51;28.60;99.90
15160;DHT22;7680;48.800;9.680;2023-08-17T13:16:54;28.30;99.90
15160;DHT22;7680;48.800;9.680;2023-08-17T13:21:57;28.00;99.90
15160;DHT22;7680;48.800;9.680;2023-08-17T13:27:02;27.90;99.90
15160;DHT22;7680;48.800;9.680;2023-08-17T13:32:05;27.60;99.90
15160;DHT22;7680;48.800;9.680;2023-08-17T13:37:08;27.40;99.90
15160;DHT22;7680;48.800;9.680;2023-08-17T13:42:13;27.20;99.90
15160;DHT22;7680;48.800;9.680;2023-08-17T13:47:16;26.90;99.90
15160;DHT22;7680;48.800;9.680;2023-08-17T13:52:19;26.70;99.90
15160;DHT22;7680;48.800;9.680;2023-08-17T13:57:24;26.60;99.90
15160;DHT22;7680;48.800;9.680;2023-08-17T14:02:27;26.50;99.90
15160;DHT22;7680;48.800;9.680;2023-08-17T14:07:32;26.30;99.90
15160;DHT22;7680;48.800;9.680;2023-08-17T14:12:37;26.10;99.90
15160;DHT22;7680;48.800;9.680;2023-08-17T14:17:40;25.90;99.90
15160;DHT22;7680;48.800;9.680;2023-08-17T14:22:43;25.90;99.90
15160;DHT22;7680;48.800;9.680;2023-08-17T14:27:48;25.70;99.90
15160;DHT22;7680;48.800;9.680;2023-08-17T14:32:51;25.70;99.90
15160;DHT22;7680;48.800;9.680;2023-08-17T14:37:54;25.60;99.90
15160;DHT22;7680;48.800;9.680;2023-08-17T14:43:00;25.50;99.90
15160;DHT22;7680;48.800;9.680;2023-08-17T14:48:04;25.40;99.90
15160;DHT22;7680;48.800;9.680;2023-08-17T14:53:09;25.20;99.90
15160;DHT22;7680;48.800;9.680;2023-08-17T14:58:13;25.10;99.90
15160;DHT22;7680;48.800;9.680;2023-08-17T15:03:17;25.00;99.90
15160;DHT22;7680;48.800;9.680;2023-08-17T15:08:25;24.80;99.90
15160;DHT22;7680;48.800;9.680;2023-08-17T15:13:30;24.70;99.90
15160;DHT22;7680;48.800;9.680;2023-08-17T15:18:34;24.50;99.90
15160;DHT22;7680;48.800;9.680;2023-08-17T15:23:37;24.50;99.90
15160;DHT22;7680;48.800;9.680;2023-08-17T15:28:42;24.50;99.90
15160;DHT22;7680;48.800;9.680;2023-08-17T15:33:45;24.40;99.90
15160;DHT22;7680;48.800;9.680;2023-08-17T15:38:48;24.40;99.90
15160;DHT22;7680;48.800;9.680;2023-08-17T15:43:53;24.30;99.90
15160;DHT22;7680;48.800;9.680;2023-08-17T15:48:56;24.20;99.90
15160;DHT22;7680;48.800;9.680;2023-08-17T15:53:59;24.20;99.90
15160;DHT22;7680;48.800;9.680;2023-08-17T15:59:04;24.20;99.90
15160;DHT22;7680;48.800;9.680;2023-08-17T16:04:07;24.10;99.90
15160;DHT22;7680;48.800;9.680;2023-08-17T16:09:10;24.00;99.90
15160;DHT22;7680;48.800;9.680;2023-08-17T16:14:15;24.00;99.90
15160;DHT22;7680;48.800;9.680;2023-08-17T16:19:18;24.10;99.90
15160;DHT22;7680;48.800;9.680;2023-08-17T16:24:21;23.90;99.90
15160;DHT22;7680;48.800;9.680;2023-08-17T16:29:29;23.80;99.90
15160;DHT22;7680;48.800;9.680;2023-08-17T16:34:33;23.70;99.90
15160;DHT22;7680;48.800;9.680;2023-08-17T16:39:36;23.60;99.90
15160;DHT22;7680;48.800;9.680;2023-08-17T16:44:41;23.80;99.90
15160;DHT22;7680;48.800;9.680;2023-08-17T16:49:44;23.80;99.90
15160;DHT22;7680;48.800;9.680;2023-08-17T16:54:47;23.90;99.90
15160;DHT22;7680;48.800;9.680;2023-08-17T16:59:52;24.00;99.90
15160;DHT22;7680;48.800;9.680;2023-08-17T17:04:55;24.00;99.90
15160;DHT22;7680;48.800;9.680;2023-08-17T17:09:58;24.00;99.90
15160;DHT22;7680;48.800;9.680;2023-08-17T17:15:03;24.00;99.90
15160;DHT22;7680;48.800;9.680;2023-08-17T17:20:08;24.00;99.90
15160;DHT22;7680;48.800;9.680;2023-08-17T17:25:12;24.10;99.90
15160;DHT22;7680;48.800;9.680;2023-08-17T17:30:17;24.20;99.90
15160;DHT22;7680;48.800;9.680;2023-08-17T17:35:20;24.10;99.90
15160;DHT22;7680;48.800;9.680;2023-08-17T17:40:24;24.10;99.90
15160;DHT22;7680;48.800;9.680;2023-08-17T17:45:28;24.10;99.90
15160;DHT22;7680;48.800;9.680;2023-08-17T17:50:31;24.10;99.90
15160;DHT22;7680;48.800;9.680;2023-08-17T17:55:34;24.00;99.90
15160;DHT22;7680;48.800;9.680;2023-08-17T18:00:39;24.00;99.90
15160;DHT22;7680;48.800;9.680;2023-08-17T18:05:43;24.00;99.90
15160;DHT22;7680;48.800;9.680;2023-08-17T18:10:47;23.90;99.90
15160;DHT22;7680;48.800;9.680;2023-08-17T18:15:51;23.80;99.90
15160;DHT22;7680;48.800;9.680;2023-08-17T18:20:55;23.80;99.90
15160;DHT22;7680;48.800;9.680;2023-08-17T18:25:58;23.70;99.90
15160;DHT22;7680;48.800;9.680;2023-08-17T18:31:02;23.60;99.90
15160;DHT22;7680;48.800;9.680;2023-08-17T18:36:06;23.60;99.90
15160;DHT22;7680;48.800;9.680;2023-08-17T18:41:09;23.50;99.90
15160;DHT22;7680;48.800;9.680;2023-08-17T18:46:14;23.40;99.90
15160;DHT22;7680;48.800;9.680;2023-08-17T18:51:17;23.30;99.90
15160;DHT22;7680;48.800;9.680;2023-08-17T18:56:20;23.30;99.90
15160;DHT22;7680;48.800;9.680;2023-08-17T19:01:25;23.30;99.90
15160;DHT22;7680;48.800;9.680;2023-08-17T19:06:28;23.20;99.90
15160;DHT22;7680;48.800;9.680;2023-08-17T19:11:31;23.20;99.90
15160;DHT22;7680;48.800;9.680;2023-08-17T19:16:35;23.10;99.90
15160;DHT22;7680;48.800;9.680;2023-08-17T19:21:39;23.10;99.90
15160;DHT22;7680;48.800;9.680;2023-08-17T19:26:42;23.10;99.90
15160;DHT22;7680;48.800;9.680;2023-08-17T19:31:46;22.80;99.90
15160;DHT22;7680;48.800;9.680;2023-08-17T19:36:51;22.70;99.90
15160;DHT22;7680;48.800;9.680;2023-08-17T19:41:54;22.70;99.90
15160;DHT22;7680;48.800;9.680;2023-08-17T19:46:59;22.60;99.90
15160;DHT22;7680;48.800;9.680;2023-08-17T19:52:02;22.50;99.90
15160;DHT22;7680;48.800;9.680;2023-08-17T19:57:05;22.40;99.90
15160;DHT22;7680;48.800;9.680;2023-08-17T20:02:10;22.40;99.90
15160;DHT22;7680;48.800;9.680;2023-08-17T20:07:13;22.30;99.90
15160;DHT22;7680;48.800;9.680;2023-08-17T20:12:16;22.30;99.90
15160;DHT22;7680;48.800;9.680;2023-08-17T20:17:21;22.20;99.90
15160;DHT22;7680;48.800;9.680;2023-08-17T20:22:24;22.20;99.90
15160;DHT22;7680;48.800;9.680;2023-08-17T20:27:27;22.20;99.90
15160;DHT22;7680;48.800;9.680;2023-08-17T20:32:32;22.20;99.90
15160;DHT22;7680;48.800;9.680;2023-08-17T20:37:35;22.00;99.90
15160;DHT22;7680;48.800;9.680;2023-08-17T20:42:40;21.80;99.90
15160;DHT22;7680;48.800;9.680;2023-08-17T20:47:44;21.80;99.90
15160;DHT22;7680;48.800;9.680;2023-08-17T20:52:48;21.50;99.90
15160;DHT22;7680;48.800;9.680;2023-08-17T20:57:51;21.40;99.90
15160;DHT22;7680;48.800;9.680;2023-08-17T21:02:55;21.30;99.90
15160;DHT22;7680;48.800;9.680;2023-08-17T21:07:59;21.20;99.90
15160;DHT22;7680;48.800;9.680;2023-08-17T21:13:04;21.00;99.90
15160;DHT22;7680;48.800;9.680;2023-08-17T21:18:09;20.80;99.90
15160;DHT22;7680;48.800;9.680;2023-08-17T21:23:12;20.80;99.90
15160;DHT22;7680;48.800;9.680;2023-08-17T21:28:15;20.70;99.90
15160;DHT22;7680;48.800;9.680;2023-08-17T21:33:20;20.60;99.90
15160;DHT22;7680;48.800;9.680;2023-08-17T21:38:23;20.40;99.90
15160;DHT22;7680;48.800;9.680;2023-08-17T21:43:26;20.40;99.90
15160;DHT22;7680;48.800;9.680;2023-08-17T21:48:31;20.30;99.90
15160;DHT22;7680;48.800;9.680;2023-08-17T21:53:34;20.20;99.90
15160;DHT22;7680;48.800;9.680;2023-08-17T21:58:37;20.20;99.90
15160;DHT22;7680;48.800;9.680;2023-08-17T22:03:42;20.20;99.90
15160;DHT22;7680;48.800;9.680;2023-08-17T22:08:45;20.20;99.90
15160;DHT22;7680;48.800;9.680;2023-08-17T22:13:48;20.10;99.90
15160;DHT22;7680;48.800;9.680;2023-08-17T22:18:56;20.20;99.90
15160;DHT22;7680;48.800;9.680;2023-08-17T22:24:00;20.20;99.90
15160;DHT22;7680;48.800;9.680;2023-08-17T22:29:03;20.10;99.90
15160;DHT22;7680;48.800;9.680;2023-08-17T22:34:08;20.10;99.90
15160;DHT22;7680;48.800;9.680;2023-08-17T22:39:11;20.20;99.90
15160;DHT22;7680;48.800;9.680;2023-08-17T22:44:14;20.20;99.90
15160;DHT22;7680;48.800;9.680;2023-08-17T22:49:19;20.20;99.90
15160;DHT22;7680;48.800;9.680;2023-08-17T22:54:22;20.10;99.90
15160;DHT22;7680;48.800;9.680;2023-08-17T22:59:25;20.20;99.90
15160;DHT22;7680;48.800;9.680;2023-08-17T23:04:30;20.20;99.90
15160;DHT22;7680;48.800;9.680;2023-08-17T23:09:33;20.10;99.90
15160;DHT22;7680;48.800;9.680;2023-08-17T23:14:37;19.80;99.90
15160;DHT22;7680;48.800;9.680;2023-08-17T23:19:41;19.50;99.90
15160;DHT22;7680;48.800;9.680;2023-08-17T23:24:45;19.40;99.90
15160;DHT22;7680;48.800;9.680;2023-08-17T23:29:48;19.30;99.90
15160;DHT22;7680;48.800;9.680;2023-08-17T23:34:52;19.30;99.90
15160;DHT22;7680;48.800;9.680;2023-08-17T23:39:55;19.30;99.90
15160;DHT22;7680;48.800;9.680;2023-08-17T23:44:59;19.30;99.90
15160;DHT22;7680;48.800;9.680;2023-08-17T23:50:03;19.30;99.90
15160;DHT22;7680;48.800;9.680;2023-08-17T23:55:07;19.10;99.90
